createdAt,value
2018-12-19T00:01:45.096Z,27.23
2018-12-19T00:04:15.504Z,20.57
2018-12-19T00:06:45.667Z,23.87
2018-12-19T00:09:16.310Z,22.03
2018-12-19T00:11:46.527Z,22.33
2018-12-19T00:14:16.991Z,20.37
2018-12-19T00:16:47.147Z,28.40
2018-12-19T00:19:18.703Z,25.27
2018-12-19T00:21:48.862Z,23.10
2018-12-19T00:24:19.997Z,20.83
2018-12-19T00:26:50.047Z,21.27
2018-12-19T00:29:20.138Z,20.33
2018-12-19T00:31:50.159Z,20.47
2018-12-19T00:34:20.870Z,21.10
2018-12-19T00:36:51.080Z,17.73
2018-12-19T00:39:21.744Z,18.90
2018-12-19T00:41:51.987Z,19.03
2018-12-19T00:44:22.500Z,22.40
2018-12-19T00:46:52.778Z,18.97
2018-12-19T00:49:23.073Z,17.80
2018-12-19T00:51:53.837Z,19.93
2018-12-19T00:54:24.554Z,18.50
2018-12-19T00:56:55.385Z,18.43
2018-12-19T00:59:26.181Z,22.80
2018-12-19T01:01:56.416Z,19.67
2018-12-19T01:04:26.581Z,21.87
2018-12-19T01:06:56.919Z,19.13
2018-12-19T01:09:27.761Z,20.83
2018-12-19T01:11:59.272Z,19.03
2018-12-19T01:14:30.781Z,23.53
2018-12-19T01:17:01.365Z,21.43
2018-12-19T01:19:31.532Z,19.97
2018-12-19T01:22:01.742Z,17.43
2018-12-19T01:24:32.582Z,25.73
2018-12-19T01:27:02.749Z,16.87
2018-12-19T01:29:33.467Z,16.73
2018-12-19T01:32:04.153Z,17.83
2018-12-19T01:34:34.268Z,20.83
2018-12-19T01:37:04.277Z,18.90
2018-12-19T01:39:34.938Z,16.10
2018-12-19T01:42:05.800Z,14.93
2018-12-19T01:44:36.543Z,21.37
2018-12-19T01:47:06.843Z,17.00
2018-12-19T01:49:37.179Z,13.80
2018-12-19T01:52:08.536Z,18.23
2018-12-19T01:54:39.812Z,22.47
2018-12-19T01:57:09.839Z,20.50
2018-12-19T01:59:41.123Z,17.03
2018-12-19T02:02:11.400Z,19.00
2018-12-19T02:04:43.147Z,16.83
2018-12-19T02:07:14.179Z,16.93
2018-12-19T02:09:44.724Z,17.80
2018-12-19T02:12:14.783Z,18.63
2018-12-19T02:14:44.855Z,20.13
2018-12-19T02:17:15.400Z,19.90
2018-12-19T02:19:45.477Z,21.50
2018-12-19T02:22:15.509Z,17.53
2018-12-19T02:24:46.459Z,16.30
2018-12-19T02:27:16.609Z,17.80
2018-12-19T02:29:46.825Z,15.50
2018-12-19T02:32:18.099Z,23.43
2018-12-19T02:34:48.178Z,20.60
2018-12-19T02:37:18.352Z,18.80
2018-12-19T02:39:48.626Z,22.40
2018-12-19T02:42:19.493Z,16.50
2018-12-19T02:44:50.465Z,19.07
2018-12-19T02:47:21.147Z,20.70
2018-12-19T02:49:52.023Z,14.87
2018-12-19T02:52:22.625Z,18.17
2018-12-19T02:54:52.845Z,16.03
2018-12-19T02:57:23.547Z,17.80
2018-12-19T02:59:53.772Z,26.97
2018-12-19T03:02:23.809Z,16.20
2018-12-19T03:04:53.907Z,20.23
2018-12-19T03:07:24.532Z,25.27
2018-12-19T03:09:55.276Z,21.70
2018-12-19T03:12:25.386Z,18.83
2018-12-19T03:14:55.429Z,21.37
2018-12-19T03:17:25.560Z,23.13
2018-12-19T03:19:57.123Z,24.57
2018-12-19T03:22:53.014Z,20.60
2018-12-19T03:25:23.260Z,17.63
2018-12-19T03:27:53.943Z,16.43
2018-12-19T03:30:24.806Z,20.00
2018-12-19T03:32:55.012Z,21.60
2018-12-19T03:35:25.111Z,18.83
2018-12-19T03:37:55.312Z,20.43
2018-12-19T03:40:26.638Z,18.13
2018-12-19T03:42:56.777Z,23.10
2018-12-19T03:45:26.999Z,19.83
2018-12-19T03:47:57.104Z,17.87
2018-12-19T03:50:27.317Z,20.70
2018-12-19T03:52:58.719Z,17.97
2018-12-19T03:55:28.776Z,23.07
2018-12-19T03:57:58.921Z,20.20
2018-12-19T04:00:30.655Z,19.97
2018-12-19T04:03:00.889Z,17.97
2018-12-19T04:05:32.056Z,19.03
2018-12-19T04:08:02.714Z,16.40
2018-12-19T04:10:32.919Z,20.60
2018-12-19T04:13:03.982Z,18.80
2018-12-19T04:15:34.039Z,23.97
2018-12-19T04:18:04.211Z,18.33
2018-12-19T04:20:35.726Z,17.87
2018-12-19T04:23:06.832Z,18.03
2018-12-19T04:25:37.023Z,21.80
2018-12-19T04:28:07.692Z,14.67
2018-12-19T04:30:40.435Z,15.33
2018-12-19T04:33:10.604Z,16.40
2018-12-19T04:35:40.803Z,15.20
2018-12-19T04:38:11.154Z,15.53
2018-12-19T04:40:41.449Z,16.47
2018-12-19T04:43:11.866Z,13.60
2018-12-19T04:45:42.368Z,15.53
2018-12-19T04:48:12.890Z,14.07
2018-12-19T04:50:43.114Z,20.20
2018-12-19T04:53:14.619Z,15.77
2018-12-19T04:55:45.958Z,18.00
2018-12-19T04:58:16.713Z,19.10
2018-12-19T05:00:46.983Z,13.20
2018-12-19T05:03:17.791Z,20.00
2018-12-19T05:05:48.048Z,14.03
2018-12-19T05:08:18.179Z,12.93
2018-12-19T05:10:48.946Z,14.50
2018-12-19T05:13:18.990Z,13.40
2018-12-19T05:15:50.258Z,14.40
2018-12-19T05:18:21.399Z,14.50
2018-12-19T05:20:51.602Z,14.47
2018-12-19T05:23:22.287Z,17.20
2018-12-19T05:25:52.570Z,13.10
2018-12-19T05:28:23.659Z,16.63
2018-12-19T05:30:53.718Z,16.30
2018-12-19T05:33:24.424Z,16.30
2018-12-19T05:35:55.036Z,14.03
2018-12-19T05:38:26.274Z,13.63
2018-12-19T05:40:57.601Z,17.20
2018-12-19T05:43:28.604Z,13.33
2018-12-19T05:45:58.704Z,15.80
2018-12-19T05:48:32.098Z,12.40
2018-12-19T05:51:02.381Z,15.00
2018-12-19T05:53:32.526Z,17.33
2018-12-19T05:56:03.175Z,15.60
2018-12-19T05:58:33.230Z,15.37
2018-12-19T06:01:04.555Z,16.07
2018-12-19T06:03:34.790Z,15.50
2018-12-19T06:06:07.054Z,13.43
2018-12-19T06:08:38.147Z,16.03
2018-12-19T06:11:08.346Z,14.40
2018-12-19T06:13:39.562Z,14.03
2018-12-19T06:16:10.534Z,17.67
2018-12-19T06:18:40.694Z,15.60
2018-12-19T06:21:11.419Z,13.93
2018-12-19T06:23:41.952Z,16.17
2018-12-19T06:26:12.824Z,12.97
2018-12-19T06:28:43.619Z,13.57
2018-12-19T06:31:14.622Z,13.57
2018-12-19T06:33:45.880Z,18.90
2018-12-19T06:36:18.037Z,14.97
2018-12-19T06:38:49.193Z,13.73
2018-12-19T06:41:20.287Z,21.93
2018-12-19T06:43:50.308Z,16.17
2018-12-19T06:46:20.922Z,15.80
2018-12-19T06:48:51.050Z,15.93
2018-12-19T06:51:21.837Z,13.97
2018-12-19T06:53:52.069Z,18.30
2018-12-19T06:56:22.913Z,15.83
2018-12-19T06:58:53.005Z,18.47
2018-12-19T07:01:23.042Z,14.57
2018-12-19T07:03:53.710Z,13.10
2018-12-19T07:06:23.860Z,15.10
2018-12-19T07:08:54.233Z,13.57
2018-12-19T07:11:25.531Z,13.43
2018-12-19T07:13:55.618Z,13.10
2018-12-19T07:16:26.284Z,13.00
2018-12-19T07:18:57.104Z,14.90
2018-12-19T07:21:28.679Z,14.30
2018-12-19T07:24:00.003Z,14.60
2018-12-19T07:26:30.334Z,16.47
2018-12-19T07:29:00.631Z,13.40
2018-12-19T07:31:30.742Z,14.27
2018-12-19T07:34:01.595Z,16.70
2018-12-19T07:36:33.018Z,17.30
2018-12-19T07:39:05.498Z,14.57
2018-12-19T07:41:36.263Z,17.93
2018-12-19T07:44:06.533Z,17.00
2018-12-19T07:46:36.794Z,20.30
2018-12-19T07:49:07.547Z,16.83
2018-12-19T07:51:38.060Z,19.47
2018-12-19T07:54:08.654Z,21.03
2018-12-19T07:56:39.313Z,17.73
2018-12-19T07:59:09.582Z,19.87
2018-12-19T08:01:39.711Z,20.40
2018-12-19T08:04:11.109Z,16.23
2018-12-19T08:06:41.262Z,18.17
2018-12-19T08:09:12.072Z,17.23
2018-12-19T08:11:42.815Z,20.17
2018-12-19T08:14:13.769Z,19.10
2018-12-19T08:16:43.973Z,19.10
2018-12-19T08:19:14.038Z,20.93
2018-12-19T08:21:45.408Z,21.93
2018-12-19T08:24:15.515Z,18.37
2018-12-19T08:26:46.444Z,20.77
2018-12-19T08:29:16.554Z,23.40
2018-12-19T08:31:47.181Z,16.80
2018-12-19T08:34:18.208Z,22.13
2018-12-19T08:36:48.575Z,21.93
2018-12-19T08:39:19.118Z,22.00
2018-12-19T08:41:49.747Z,22.20
2018-12-19T08:44:20.973Z,22.40
2018-12-19T08:46:51.802Z,20.10
2018-12-19T08:49:21.942Z,17.13
2018-12-19T08:51:52.631Z,19.50
2018-12-19T08:54:23.512Z,20.53
2018-12-19T08:56:53.611Z,21.97
2018-12-19T08:59:24.940Z,16.80
2018-12-19T09:01:55.040Z,16.47
2018-12-19T09:04:25.879Z,26.20
2018-12-19T09:06:56.512Z,22.67
2018-12-19T09:09:27.726Z,21.07
2018-12-19T09:11:57.842Z,20.93
2018-12-19T09:14:28.013Z,22.00
2018-12-19T09:16:58.015Z,18.50
2018-12-19T09:19:28.116Z,19.47
2018-12-19T09:21:58.253Z,21.87
2018-12-19T09:24:28.408Z,21.20
2018-12-19T09:26:59.136Z,23.27
2018-12-19T09:29:29.338Z,24.43
2018-12-19T09:32:00.213Z,22.37
2018-12-19T09:34:31.582Z,19.60
2018-12-19T09:37:01.782Z,21.90
2018-12-19T09:39:32.432Z,20.13
2018-12-19T09:42:03.659Z,19.20
2018-12-19T09:44:33.738Z,16.60
2018-12-19T09:47:05.205Z,16.53
2018-12-19T09:49:35.240Z,20.00
2018-12-19T09:52:06.159Z,19.63
2018-12-19T09:54:36.355Z,20.70
2018-12-19T09:57:06.525Z,19.43
2018-12-19T09:59:37.537Z,17.80
2018-12-19T10:02:07.701Z,19.53
2018-12-19T10:04:37.907Z,21.60
2018-12-19T10:07:08.043Z,19.30
2018-12-19T10:09:38.217Z,20.53
2018-12-19T10:12:09.239Z,23.63
2018-12-19T10:14:39.261Z,24.10
2018-12-19T10:17:09.933Z,26.47
2018-12-19T10:19:41.392Z,16.87
2018-12-19T10:22:13.701Z,19.80
2018-12-19T10:24:49.582Z,23.00
2018-12-19T10:27:21.920Z,22.60
2018-12-19T10:29:52.625Z,21.93
2018-12-19T10:32:23.329Z,21.27
2018-12-19T10:34:53.455Z,21.13
2018-12-19T10:37:23.552Z,17.40
2018-12-19T10:39:54.234Z,22.40
2018-12-19T10:42:24.877Z,21.33
2018-12-19T10:44:55.674Z,19.17
2018-12-19T10:47:26.403Z,18.30
2018-12-19T10:49:57.472Z,17.30
2018-12-19T10:52:27.698Z,20.07
2018-12-19T10:54:59.119Z,21.03
2018-12-19T10:57:29.864Z,21.23
2018-12-19T11:00:00.595Z,17.13
2018-12-19T11:02:53.365Z,17.00
2018-12-19T11:05:23.659Z,19.97
2018-12-19T11:07:54.414Z,17.80
2018-12-19T11:10:25.471Z,18.27
2018-12-19T11:12:56.415Z,17.03
2018-12-19T11:15:26.541Z,15.33
2018-12-19T11:17:56.731Z,20.80
2018-12-19T11:20:27.793Z,18.70
2018-12-19T11:22:57.900Z,20.13
2018-12-19T11:25:28.737Z,19.13
2018-12-19T11:28:00.134Z,20.40
2018-12-19T11:30:30.934Z,19.70
2018-12-19T11:33:01.269Z,17.50
2018-12-19T11:35:31.422Z,17.93
2018-12-19T11:38:02.164Z,19.43
2018-12-19T11:40:32.803Z,24.60
2018-12-19T11:43:03.023Z,22.30
2018-12-19T11:45:33.838Z,22.57
2018-12-19T11:48:04.165Z,18.83
2018-12-19T11:50:35.105Z,20.10
2018-12-19T11:53:05.402Z,24.93
2018-12-19T11:55:35.607Z,19.57
2018-12-19T11:58:06.978Z,20.57
2018-12-19T12:00:37.754Z,22.60
2018-12-19T12:03:08.520Z,16.13
2018-12-19T12:05:39.622Z,17.80
2018-12-19T12:08:10.310Z,18.53
2018-12-19T12:10:40.389Z,20.37
2018-12-19T12:13:11.328Z,22.73
2018-12-19T12:15:41.501Z,19.70
2018-12-19T12:18:12.583Z,19.73
2018-12-19T12:20:42.774Z,20.60
2018-12-19T12:23:12.958Z,19.00
2018-12-19T12:25:43.765Z,18.60
2018-12-19T12:28:16.367Z,17.90
2018-12-19T12:30:47.047Z,15.13
2018-12-19T12:33:17.258Z,17.00
2018-12-19T12:35:47.840Z,18.67
2018-12-19T12:38:18.124Z,17.40
2018-12-19T12:40:48.386Z,20.53
2018-12-19T12:43:18.522Z,19.57
2018-12-19T12:45:48.597Z,17.70
2018-12-19T12:48:18.677Z,18.73
2018-12-19T12:50:49.027Z,15.57
2018-12-19T12:53:19.222Z,15.07
2018-12-19T12:55:49.351Z,18.20
2018-12-19T12:58:20.219Z,17.27
2018-12-19T13:00:50.882Z,16.27
2018-12-19T13:03:20.964Z,19.00
2018-12-19T13:05:51.100Z,16.43
2018-12-19T13:08:22.044Z,19.80
2018-12-19T13:10:53.007Z,17.53
2018-12-19T13:13:23.097Z,18.87
2018-12-19T13:15:53.336Z,17.47
2018-12-19T13:18:23.640Z,19.03
2018-12-19T13:20:55.018Z,18.50
2018-12-19T13:23:26.889Z,18.53
2018-12-19T13:26:00.192Z,18.10
2018-12-19T13:28:35.809Z,22.60
2018-12-19T13:31:05.986Z,16.10
2018-12-19T13:33:36.478Z,17.43
2018-12-19T13:36:06.540Z,18.37
2018-12-19T13:38:36.684Z,16.70
2018-12-19T13:41:07.496Z,17.17
2018-12-19T13:43:37.656Z,20.37
2018-12-19T13:46:08.235Z,20.00
2018-12-19T13:48:38.312Z,18.70
2018-12-19T13:51:08.910Z,21.20
2018-12-19T13:53:39.537Z,17.97
2018-12-19T13:56:10.478Z,21.10
2018-12-19T13:58:41.784Z,18.87
2018-12-19T14:01:11.851Z,19.37
2018-12-19T14:03:42.621Z,17.80
2018-12-19T14:06:13.717Z,20.07
2018-12-19T14:08:43.921Z,18.43
2018-12-19T14:11:14.850Z,19.30
2018-12-19T14:13:45.782Z,19.13
2018-12-19T14:16:16.484Z,20.60
2018-12-19T14:18:46.619Z,23.20
2018-12-19T14:21:17.470Z,19.57
2018-12-19T14:23:47.650Z,19.73
2018-12-19T14:26:17.775Z,18.73
2018-12-19T14:28:49.563Z,16.73
2018-12-19T14:31:20.861Z,18.47
2018-12-19T14:33:51.593Z,17.67
2018-12-19T14:36:22.269Z,20.13
2018-12-19T14:38:53.035Z,21.87
2018-12-19T14:41:23.151Z,18.83
2018-12-19T14:43:54.039Z,19.27
2018-12-19T14:46:24.751Z,21.50
2018-12-19T14:48:54.845Z,17.63
2018-12-19T14:51:25.858Z,22.57
2018-12-19T14:53:57.220Z,17.70
2018-12-19T14:56:27.338Z,21.40
2018-12-19T14:58:58.121Z,21.40
2018-12-19T15:01:28.946Z,19.60
2018-12-19T15:04:01.775Z,18.70
2018-12-19T15:06:31.825Z,17.50
2018-12-19T15:09:02.895Z,19.47
2018-12-19T15:11:33.851Z,18.50
2018-12-19T15:14:04.483Z,18.40
2018-12-19T15:16:36.117Z,21.80
2018-12-19T15:19:06.747Z,19.60
2018-12-19T15:21:37.588Z,22.10
2018-12-19T15:24:07.797Z,22.20
2018-12-19T15:26:37.863Z,22.43
2018-12-19T15:29:08.525Z,19.60
2018-12-19T15:31:38.623Z,19.43
2018-12-19T15:34:09.519Z,16.83
2018-12-19T15:36:40.398Z,20.30
2018-12-19T15:39:11.278Z,22.73
2018-12-19T15:41:41.388Z,20.57
2018-12-19T15:44:11.522Z,21.20
2018-12-19T15:46:42.283Z,23.63
2018-12-19T15:49:13.530Z,20.90
2018-12-19T15:51:44.020Z,19.70
2018-12-19T15:54:14.762Z,23.90
2018-12-19T15:56:44.947Z,21.73
2018-12-19T15:59:15.143Z,24.83
2018-12-19T16:01:45.326Z,33.63
2018-12-19T16:04:16.261Z,34.27
2018-12-19T16:06:48.630Z,75.63
2018-12-19T16:09:19.721Z,21.50
2018-12-19T16:11:50.012Z,23.00
2018-12-19T16:14:20.386Z,17.33
2018-12-19T16:16:50.489Z,21.80
2018-12-19T16:19:20.802Z,27.77
2018-12-19T16:21:52.655Z,22.93
2018-12-19T16:24:23.368Z,24.43
2018-12-19T16:26:54.013Z,24.30
2018-12-19T16:29:25.460Z,21.93
2018-12-19T16:31:56.138Z,26.33
2018-12-19T16:34:26.924Z,23.90
2018-12-19T16:36:57.212Z,19.03
2018-12-19T16:39:27.895Z,20.43
2018-12-19T16:42:01.283Z,28.90
2018-12-19T16:44:31.491Z,21.70
2018-12-19T16:47:01.688Z,25.87
2018-12-19T16:49:32.004Z,29.37
2018-12-19T16:52:02.099Z,25.87
2018-12-19T16:54:32.457Z,25.83
2018-12-19T16:57:02.599Z,22.37
2018-12-19T16:59:32.758Z,33.23
2018-12-19T17:02:03.511Z,27.27
2018-12-19T17:04:34.797Z,25.93
2018-12-19T17:07:05.767Z,20.60
2018-12-19T17:09:37.357Z,25.97
2018-12-19T17:12:08.207Z,23.40
2018-12-19T17:14:38.635Z,25.23
2018-12-19T17:17:08.828Z,27.27
2018-12-19T17:19:39.582Z,27.10
2018-12-19T17:22:10.644Z,39.60
2018-12-19T17:24:41.246Z,35.50
2018-12-19T17:27:11.597Z,34.43
2018-12-19T17:29:41.980Z,41.93
2018-12-19T17:32:12.469Z,50.77
2018-12-19T17:34:43.312Z,27.73
2018-12-19T17:37:13.983Z,40.33
2018-12-19T17:39:44.249Z,30.97
2018-12-19T17:42:15.045Z,29.80
2018-12-19T17:44:46.098Z,31.80
2018-12-19T17:47:16.633Z,35.60
2018-12-19T17:49:46.916Z,36.17
2018-12-19T17:52:17.059Z,39.07
2018-12-19T17:54:47.943Z,30.00
2018-12-19T17:57:18.703Z,36.13
2018-12-19T17:59:49.093Z,30.90
2018-12-19T18:02:19.297Z,28.20
2018-12-19T18:04:49.397Z,39.33
2018-12-19T18:07:19.646Z,34.20
2018-12-19T18:09:50.490Z,35.33
2018-12-19T18:12:21.675Z,31.20
2018-12-19T18:14:51.973Z,36.73
2018-12-19T18:17:22.217Z,32.17
2018-12-19T18:19:52.560Z,39.67
2018-12-19T18:22:23.791Z,31.90
2018-12-19T18:24:53.994Z,50.33
2018-12-19T18:27:24.757Z,44.73
2018-12-19T18:29:54.975Z,29.87
2018-12-19T18:32:25.997Z,39.37
2018-12-19T18:34:56.266Z,34.23
2018-12-19T18:37:26.486Z,62.10
2018-12-19T18:39:56.651Z,27.77
2018-12-19T18:42:26.881Z,34.00
2018-12-19T18:44:57.010Z,27.40
2018-12-19T18:47:27.166Z,27.60
2018-12-19T18:49:57.446Z,27.83
2018-12-19T18:52:27.602Z,34.67
2018-12-19T18:54:58.689Z,37.27
2018-12-19T18:57:28.980Z,49.20
2018-12-19T19:00:01.560Z,75.43
2018-12-19T19:02:32.074Z,53.43
2018-12-19T19:05:02.439Z,53.30
2018-12-19T19:07:32.479Z,49.63
2018-12-19T19:10:03.063Z,45.40
2018-12-19T19:12:33.351Z,60.10
2018-12-19T19:15:03.822Z,47.00
2018-12-19T19:17:33.976Z,40.70
2018-12-19T19:20:04.603Z,41.43
2018-12-19T19:22:35.162Z,41.93
2018-12-19T19:25:05.741Z,37.73
2018-12-19T19:27:36.027Z,31.00
2018-12-19T19:30:07.441Z,33.97
2018-12-19T19:32:37.689Z,35.50
2018-12-19T19:35:08.504Z,42.70
2018-12-19T19:37:38.738Z,31.20
2018-12-19T19:40:10.843Z,34.90
2018-12-19T19:42:41.311Z,34.03
2018-12-19T19:45:12.878Z,38.43
2018-12-19T19:47:43.629Z,33.63
2018-12-19T19:50:14.203Z,35.97
2018-12-19T19:52:44.748Z,35.47
2018-12-19T19:55:15.547Z,38.10
2018-12-19T19:57:46.990Z,36.03
2018-12-19T20:00:23.868Z,36.23
2018-12-19T20:02:55.402Z,35.17
2018-12-19T20:05:26.214Z,39.43
2018-12-19T20:07:57.446Z,27.73
2018-12-19T20:10:28.053Z,33.70
2018-12-19T20:12:59.462Z,26.00
2018-12-19T20:15:29.982Z,33.80
2018-12-19T20:18:00.396Z,30.63
2018-12-19T20:20:30.611Z,34.80
2018-12-19T20:23:00.625Z,34.30
2018-12-19T20:25:30.859Z,28.17
2018-12-19T20:28:01.414Z,27.10
2018-12-19T20:30:31.777Z,26.40
2018-12-19T20:33:02.721Z,34.13
2018-12-19T20:35:33.238Z,30.47
2018-12-19T20:38:04.311Z,32.40
2018-12-19T20:40:35.368Z,32.70
2018-12-19T20:43:06.717Z,27.70
2018-12-19T20:45:37.640Z,32.93
2018-12-19T20:48:07.853Z,28.30
2018-12-19T20:50:38.182Z,32.17
2018-12-19T20:53:08.336Z,29.30
2018-12-19T20:55:39.560Z,36.20
2018-12-19T20:58:10.614Z,36.23
2018-12-19T21:00:41.248Z,32.27
2018-12-19T21:03:11.691Z,33.20
2018-12-19T21:05:42.715Z,36.80
2018-12-19T21:08:13.407Z,31.63
2018-12-19T21:10:44.007Z,28.10
2018-12-19T21:13:14.837Z,30.50
2018-12-19T21:15:45.378Z,36.37
2018-12-19T21:18:20.589Z,33.43
2018-12-19T21:20:52.161Z,36.27
2018-12-19T21:23:22.398Z,29.03
2018-12-19T21:25:52.594Z,36.60
2018-12-19T21:28:22.764Z,40.13
2018-12-19T21:30:53.265Z,39.70
2018-12-19T21:33:23.305Z,31.40
2018-12-19T21:35:53.832Z,35.87
2018-12-19T21:38:24.572Z,31.27
2018-12-19T21:40:55.272Z,34.93
2018-12-19T21:43:27.368Z,36.77
2018-12-19T21:45:57.491Z,35.87
2018-12-19T21:48:28.734Z,38.57
2018-12-19T21:50:59.311Z,38.07
2018-12-19T21:53:30.217Z,32.17
2018-12-19T21:56:01.008Z,33.27
2018-12-19T21:58:31.270Z,33.60
2018-12-19T22:01:01.962Z,38.07
2018-12-19T22:03:32.125Z,33.07
2018-12-19T22:06:02.570Z,33.10
2018-12-19T22:08:33.559Z,32.77
2018-12-19T22:11:04.300Z,33.30
2018-12-19T22:13:35.004Z,31.53
2018-12-19T22:16:05.963Z,29.03
2018-12-19T22:18:47.176Z,38.60
2018-12-19T22:21:18.330Z,39.10
2018-12-19T22:23:48.732Z,35.40
2018-12-19T22:26:18.789Z,31.67
2018-12-19T22:28:49.485Z,32.67
2018-12-19T22:31:21.374Z,31.80
2018-12-19T22:33:52.044Z,31.80
2018-12-19T22:36:22.351Z,35.47
2018-12-19T22:38:52.705Z,33.43
2018-12-19T22:41:25.410Z,28.33
2018-12-19T22:43:55.598Z,34.30
2018-12-19T22:46:25.791Z,38.17
2018-12-19T22:48:55.995Z,33.00
2018-12-19T22:51:26.285Z,35.67
2018-12-19T22:53:56.786Z,34.10
2018-12-19T22:56:27.694Z,35.63
2018-12-19T22:58:57.934Z,36.10
2018-12-19T23:01:33.105Z,36.67
2018-12-19T23:04:07.210Z,32.90
2018-12-19T23:06:38.657Z,37.23
2018-12-19T23:09:09.313Z,35.60
2018-12-19T23:11:39.859Z,34.07
2018-12-19T23:14:15.352Z,35.03
2018-12-19T23:16:43.878Z,34.10
2018-12-19T23:19:14.215Z,32.43
2018-12-19T23:21:45.296Z,35.40
2018-12-19T23:24:16.832Z,33.27
2018-12-19T23:26:47.050Z,33.33
2018-12-19T23:29:17.330Z,36.50
2018-12-19T23:31:47.605Z,34.27
2018-12-19T23:34:17.666Z,30.37
2018-12-19T23:36:47.995Z,34.63
2018-12-19T23:39:18.304Z,32.23
2018-12-19T23:41:48.489Z,32.70
2018-12-19T23:44:24.693Z,33.10
2018-12-19T23:46:55.091Z,33.13
2018-12-19T23:49:25.707Z,38.20
2018-12-19T23:51:56.855Z,35.77
2018-12-19T23:54:29.164Z,33.60
2018-12-19T23:56:59.177Z,29.10
2018-12-19T23:59:29.651Z,38.47
